CheckWX is a tool to help pilots better visualize weather data.  It is not intended as a substitute for an official pre-flight weather briefing.

00:54:45 UTC

KEET METAR
Shelby County Airport
Alabaster, Alabama, USA
Current

1 hour ago

KEET 232353Z AUTO 00000KT 10SM CLR 19/02 A3020 RMK AO2 SLP225 T01890022 10228 20189 53005
Observed
Mar-23 @ 23:53 UTC
Visibility
10 SM
Flight Rules
VFR
Cloud Levels
  • Clear skies
Temperature
19°C / 66°F
Dewpoint
C / 36°F
Humidity
32%
Altimeter
30.2" Hg
Pressure
1022.5 hPa
Previous

2 hours ago

KEET 232253Z AUTO 12003KT 10SM CLR 21/00 A3019 RMK AO2 SLP221 T02110000
Observed
Mar-23 @ 22:53 UTC
Wind
  • 120° at 3 KTS
Visibility
10 SM
Flight Rules
VFR
Cloud Levels
  • Clear skies
Temperature
21°C / 70°F
Dewpoint
C / 32°F
Humidity
25%
Altimeter
30.19" Hg
Pressure
1022.1 hPa
Previous

3 hours ago

KEET 232153Z AUTO 00000KT 10SM CLR 22/00 A3018 RMK AO2 SLP218 T02220000
Observed
Mar-23 @ 21:53 UTC
Visibility
10 SM
Flight Rules
VFR
Cloud Levels
  • Clear skies
Temperature
22°C / 72°F
Dewpoint
C / 32°F
Humidity
23%
Altimeter
30.18" Hg
Pressure
1021.8 hPa